createdAt,value
2019-05-23T00:02:28.388Z,101670.77
2019-05-23T00:05:34.849Z,101675.70
2019-05-23T00:08:26.922Z,101675.78
2019-05-23T00:11:16.541Z,101677.09
2019-05-23T00:14:10.569Z,101672.48
2019-05-23T00:16:45.732Z,101671.72
2019-05-23T00:19:16.103Z,101681.37
2019-05-23T00:21:48.989Z,101681.16
2019-05-23T00:24:19.848Z,101684.94
2019-05-23T00:26:51.062Z,101684.31
2019-05-23T00:29:23.992Z,101684.17
2019-05-23T00:32:00.917Z,101678.99
2019-05-23T00:34:34.904Z,101680.13
2019-05-23T00:37:07.017Z,101679.11
2019-05-23T00:39:37.934Z,101682.89
2019-05-23T00:42:10.160Z,101681.72
2019-05-23T00:44:41.001Z,101682.72
2019-05-23T00:47:13.712Z,101675.72
2019-05-23T00:49:44.107Z,101677.19
2019-05-23T00:52:14.845Z,101676.56
2019-05-23T00:54:45.331Z,101678.97
2019-05-23T00:57:16.192Z,101678.83
2019-05-23T00:59:47.733Z,101677.88
2019-05-23T01:02:18.354Z,101678.08
2019-05-23T01:04:49.091Z,101673.59
2019-05-23T01:07:20.858Z,101674.24
2019-05-23T01:09:52.002Z,101673.98
2019-05-23T01:12:22.371Z,101671.58
2019-05-23T01:14:55.120Z,101665.91
2019-05-23T01:17:27.082Z,101668.77
2019-05-23T01:19:59.918Z,101667.83
2019-05-23T01:22:30.626Z,101666.00
2019-05-23T01:25:01.434Z,101669.54
2019-05-23T01:27:32.410Z,101664.18
2019-05-23T01:30:05.170Z,101659.64
2019-05-23T01:32:46.441Z,101657.52
2019-05-23T01:35:20.845Z,101661.45
2019-05-23T01:37:52.560Z,101661.48
2019-05-23T01:40:23.340Z,101661.48
2019-05-23T01:42:54.115Z,101658.27
2019-05-23T01:45:25.117Z,101659.34
2019-05-23T01:47:56.263Z,101658.30
2019-05-23T01:50:27.089Z,101653.83
2019-05-23T01:52:57.672Z,101654.48
2019-05-23T01:55:28.034Z,101653.12
2019-05-23T01:58:00.665Z,101652.17
2019-05-23T02:00:33.175Z,101649.06
2019-05-23T02:03:04.886Z,101649.40
2019-05-23T02:05:35.355Z,101645.87
2019-05-23T02:08:10.696Z,101637.77
2019-05-23T02:10:41.880Z,101637.77
2019-05-23T02:13:14.745Z,101641.59
2019-05-23T02:15:45.134Z,101642.72
2019-05-23T02:18:19.288Z,101637.84
2019-05-23T02:20:50.753Z,101635.28
2019-05-23T02:23:22.597Z,101640.23
2019-05-23T02:25:53.600Z,101634.58
2019-05-23T02:28:25.370Z,101632.48
2019-05-23T02:30:56.944Z,101628.58
2019-05-23T02:33:28.525Z,101631.53
2019-05-23T02:36:00.888Z,101630.59
2019-05-23T02:39:02.147Z,101629.80
2019-05-23T02:41:56.026Z,101631.38
2019-05-23T02:44:28.187Z,101626.66
2019-05-23T02:47:04.820Z,101630.42
2019-05-23T02:49:37.884Z,101623.48
2019-05-23T02:52:23.043Z,101626.05
2019-05-23T02:54:56.162Z,101621.62
2019-05-23T02:57:28.281Z,101624.41
2019-05-23T03:00:10.654Z,101616.76
2019-05-23T03:02:58.873Z,101616.76
2019-05-23T03:05:31.350Z,101623.14
2019-05-23T03:08:07.777Z,101617.33
2019-05-23T03:10:54.664Z,101618.89
2019-05-23T03:13:28.321Z,101611.89
2019-05-23T03:16:00.535Z,101614.34
2019-05-23T03:18:34.534Z,101612.84
2019-05-23T03:21:05.829Z,101614.74
2019-05-23T03:23:36.311Z,101616.74
2019-05-23T03:26:39.943Z,101615.01
2019-05-23T03:29:11.819Z,101617.95
2019-05-23T03:31:49.639Z,101614.61
2019-05-23T03:34:24.318Z,101609.18
2019-05-23T03:36:55.464Z,101612.91
2019-05-23T03:39:28.175Z,101609.58
2019-05-23T03:41:59.163Z,101604.01
2019-05-23T03:44:32.730Z,101617.33
2019-05-23T03:47:04.678Z,101612.36
2019-05-23T03:49:37.278Z,101609.19
2019-05-23T03:52:10.282Z,101612.66
2019-05-23T03:54:43.502Z,101610.52
2019-05-23T03:57:15.052Z,101606.95
2019-05-23T03:59:47.053Z,101613.02
2019-05-23T04:02:19.021Z,101610.77
2019-05-23T04:04:49.353Z,101612.59
2019-05-23T04:07:20.226Z,101613.53
2019-05-23T04:09:50.633Z,101613.69
2019-05-23T04:12:21.210Z,101611.61
2019-05-23T04:14:55.556Z,101620.23
2019-05-23T04:17:25.811Z,101618.18
2019-05-23T04:19:56.275Z,101611.50
2019-05-23T04:22:27.124Z,101609.53
2019-05-23T04:25:01.886Z,101610.56
2019-05-23T04:27:29.771Z,101610.00
2019-05-23T04:30:00.309Z,101607.89
2019-05-23T04:32:31.206Z,101612.14
2019-05-23T04:35:01.536Z,101601.64
2019-05-23T04:37:32.286Z,101600.62
2019-05-23T04:40:02.680Z,101599.41
2019-05-23T04:42:33.252Z,101599.56
2019-05-23T04:45:04.649Z,101598.30
2019-05-23T04:47:43.298Z,101596.23
2019-05-23T04:50:14.307Z,101592.39
2019-05-23T04:52:45.078Z,101598.35
2019-05-23T04:55:16.565Z,101598.05
2019-05-23T04:57:47.126Z,101597.80
2019-05-23T05:00:18.563Z,101595.52
2019-05-23T05:02:49.674Z,101598.52
2019-05-23T05:05:20.452Z,101594.31
2019-05-23T05:07:50.745Z,101598.28
2019-05-23T05:10:23.612Z,101606.10
2019-05-23T05:12:54.486Z,101599.47
2019-05-23T05:15:25.632Z,101600.64
2019-05-23T05:17:56.448Z,101597.66
2019-05-23T05:20:27.843Z,101599.75
2019-05-23T05:22:59.819Z,101592.64
2019-05-23T05:25:30.514Z,101592.64
2019-05-23T05:28:01.606Z,101597.30
2019-05-23T05:30:32.200Z,101603.66
2019-05-23T05:33:03.968Z,101605.62
2019-05-23T05:35:35.693Z,101610.03
2019-05-23T05:38:07.494Z,101611.66
2019-05-23T05:40:37.805Z,101614.91
2019-05-23T05:43:08.331Z,101610.95
2019-05-23T05:45:39.021Z,101613.34
2019-05-23T05:48:09.680Z,101605.04
2019-05-23T05:50:40.556Z,101612.04
2019-05-23T05:53:10.889Z,101613.34
2019-05-23T05:55:41.264Z,101615.03
2019-05-23T05:58:12.324Z,101618.92
2019-05-23T06:00:52.248Z,101617.13
2019-05-23T06:03:22.542Z,101614.45
2019-05-23T06:06:06.473Z,101620.14
2019-05-23T06:08:37.894Z,101619.37
2019-05-23T06:11:08.852Z,101618.33
2019-05-23T06:13:39.097Z,101621.75
2019-05-23T06:16:10.324Z,101617.01
2019-05-23T06:18:40.831Z,101614.80
2019-05-23T06:21:12.266Z,101615.09
2019-05-23T06:23:43.946Z,101624.03
2019-05-23T06:26:14.673Z,101626.08
2019-05-23T06:28:45.938Z,101623.12
2019-05-23T06:31:17.847Z,101626.59
2019-05-23T06:33:48.237Z,101625.13
2019-05-23T06:36:18.770Z,101629.95
2019-05-23T06:38:50.092Z,101621.15
2019-05-23T06:41:21.281Z,101621.11
2019-05-23T06:43:52.267Z,101622.27
2019-05-23T06:46:22.864Z,101614.16
2019-05-23T06:48:53.578Z,101610.16
2019-05-23T06:51:25.902Z,101613.17
2019-05-23T06:53:57.402Z,101613.17
2019-05-23T06:56:28.261Z,101616.90
2019-05-23T06:58:59.106Z,101612.80
2019-05-23T07:01:30.709Z,101611.42
2019-05-23T07:04:01.664Z,101621.12
2019-05-23T07:06:32.392Z,101614.84
2019-05-23T07:09:04.793Z,101610.99
2019-05-23T07:11:35.967Z,101614.58
2019-05-23T07:14:07.133Z,101610.42
2019-05-23T07:16:39.124Z,101611.61
2019-05-23T07:19:09.692Z,101605.35
2019-05-23T07:21:40.743Z,101611.62
2019-05-23T07:24:11.899Z,101611.11
2019-05-23T07:26:45.218Z,101606.00
2019-05-23T07:29:15.760Z,101602.74
2019-05-23T07:31:46.358Z,101591.09
2019-05-23T07:34:17.222Z,101582.66
2019-05-23T07:36:47.882Z,101573.11
2019-05-23T07:39:20.974Z,101572.06
2019-05-23T07:41:52.533Z,101564.49
2019-05-23T07:44:24.450Z,101565.67
2019-05-23T07:46:55.039Z,101559.61
2019-05-23T07:49:25.367Z,101552.81
2019-05-23T07:51:55.990Z,101553.59
2019-05-23T07:54:32.300Z,101544.89
2019-05-23T07:57:03.887Z,101546.41
2019-05-23T07:59:34.514Z,101542.20
2019-05-23T08:02:15.522Z,101538.48
2019-05-23T08:04:46.254Z,101541.56
2019-05-23T08:07:18.545Z,101543.98
2019-05-23T08:09:49.479Z,101540.19
2019-05-23T08:12:20.370Z,101537.30
2019-05-23T08:14:50.976Z,101538.25
2019-05-23T08:17:22.120Z,101529.66
2019-05-23T08:19:52.888Z,101531.06
2019-05-23T08:22:23.954Z,101532.13
2019-05-23T08:24:55.082Z,101529.81
2019-05-23T08:27:25.771Z,101527.73
2019-05-23T08:29:56.980Z,101529.72
2019-05-23T08:32:27.830Z,101534.89
2019-05-23T08:34:58.465Z,101534.96
2019-05-23T08:37:30.236Z,101529.85
2019-05-23T08:40:01.292Z,101524.51
2019-05-23T08:42:33.028Z,101521.41
2019-05-23T08:45:03.628Z,101515.64
2019-05-23T08:47:33.937Z,101520.48
2019-05-23T08:50:04.732Z,101518.43
2019-05-23T08:52:35.326Z,101512.92
2019-05-23T08:55:17.801Z,101508.91
2019-05-23T08:57:48.327Z,101511.94
2019-05-23T09:00:20.529Z,101509.18
2019-05-23T09:02:51.613Z,101503.98
2019-05-23T09:05:23.956Z,101507.98
2019-05-23T09:50:58.302Z,101481.94
2019-05-23T09:53:29.258Z,101480.88
2019-05-23T09:56:02.432Z,101479.06
2019-05-23T09:58:33.024Z,101482.18
2019-05-23T10:01:04.596Z,101476.64
2019-05-23T10:03:35.669Z,101466.55
2019-05-23T10:06:06.992Z,101468.25
2019-05-23T10:08:37.708Z,101464.83
2019-05-23T10:11:09.770Z,101459.59
2019-05-23T10:13:40.331Z,101455.23
2019-05-23T10:16:11.188Z,101465.46
2019-05-23T10:18:43.247Z,101468.91
2019-05-23T10:21:14.087Z,101466.74
2019-05-23T10:23:44.764Z,101460.91
2019-05-23T10:26:15.698Z,101457.17
2019-05-23T10:28:45.971Z,101447.84
2019-05-23T10:31:17.805Z,101436.92
2019-05-23T10:33:48.104Z,101441.82
2019-05-23T10:36:18.846Z,101449.30
2019-05-23T10:38:49.754Z,101444.90
2019-05-23T10:41:20.390Z,101440.00
2019-05-23T10:43:51.146Z,101437.03
2019-05-23T10:46:21.946Z,101440.66
2019-05-23T10:48:52.631Z,101429.32
2019-05-23T10:51:23.542Z,101421.39
2019-05-23T10:53:55.366Z,101420.53
2019-05-23T10:56:26.244Z,101419.94
2019-05-23T10:58:56.819Z,101422.70
2019-05-23T11:01:28.251Z,101408.61
2019-05-23T11:03:59.283Z,101414.80
2019-05-23T11:06:31.713Z,101409.91
2019-05-23T11:09:05.711Z,101407.11
2019-05-23T11:11:36.465Z,101408.53
2019-05-23T11:14:08.880Z,101408.41
2019-05-23T11:16:40.474Z,101407.11
2019-05-23T11:19:13.279Z,101404.48
2019-05-23T11:21:43.849Z,101403.24
2019-05-23T11:24:16.247Z,101398.74
2019-05-23T11:26:47.060Z,101392.26
2019-05-23T11:29:17.617Z,101392.26
2019-05-23T11:31:48.342Z,101401.00
2019-05-23T11:34:19.145Z,101395.78
2019-05-23T11:36:49.588Z,101396.77
2019-05-23T11:39:22.459Z,101380.36
2019-05-23T11:41:53.098Z,101380.36
2019-05-23T11:44:23.735Z,101377.07
2019-05-23T11:46:54.531Z,101382.92
2019-05-23T11:49:25.764Z,101380.38
2019-05-23T11:51:56.183Z,101382.77
2019-05-23T11:54:28.094Z,101376.88
2019-05-23T11:57:00.008Z,101381.03
2019-05-23T11:59:30.880Z,101369.95
2019-05-23T12:02:10.979Z,101383.67
2019-05-23T12:04:43.161Z,101375.92
2019-05-23T12:07:17.847Z,101374.31
2019-05-23T12:09:48.395Z,101375.00
2019-05-23T12:12:19.626Z,101366.75
2019-05-23T12:14:50.189Z,101371.16
2019-05-23T12:17:22.043Z,101361.43
2019-05-23T12:19:53.182Z,101372.92
2019-05-23T12:22:24.207Z,101375.81
2019-05-23T12:24:54.868Z,101364.36
2019-05-23T12:27:25.531Z,101366.27
2019-05-23T12:29:56.380Z,101375.86
2019-05-23T12:32:27.517Z,101375.86
2019-05-23T12:35:10.558Z,101364.86
2019-05-23T12:37:31.874Z,101360.81
2019-05-23T12:40:02.725Z,101366.31
2019-05-23T12:42:33.096Z,101358.69
2019-05-23T12:45:05.822Z,101344.79
2019-05-23T12:47:44.607Z,101358.92
2019-05-23T12:50:18.324Z,101348.58
2019-05-23T12:52:48.911Z,101354.27
2019-05-23T12:55:19.551Z,101357.34
2019-05-23T12:57:50.908Z,101348.13
2019-05-23T13:00:34.754Z,101343.56
2019-05-23T13:03:05.733Z,101346.44
2019-05-23T13:05:37.208Z,101338.83
2019-05-23T13:08:08.105Z,101337.86
2019-05-23T13:10:39.079Z,101338.94
2019-05-23T13:13:09.839Z,101335.73
2019-05-23T13:15:41.811Z,101333.62
2019-05-23T13:18:12.620Z,101334.69
2019-05-23T13:20:43.581Z,101330.04
2019-05-23T13:23:20.737Z,101320.16
2019-05-23T13:25:46.796Z,101320.16
2019-05-23T13:28:17.766Z,101312.98
2019-05-23T13:30:48.961Z,101318.67
2019-05-23T13:33:19.688Z,101318.67
2019-05-23T13:35:50.437Z,101327.87
2019-05-23T13:38:21.417Z,101327.87
2019-05-23T13:40:52.263Z,101321.85
2019-05-23T13:43:24.545Z,101314.38
2019-05-23T13:45:55.162Z,101320.72
2019-05-23T13:48:28.195Z,101317.18
2019-05-23T13:50:58.374Z,101318.63
2019-05-23T13:53:29.734Z,101312.02
2019-05-23T13:56:00.661Z,101310.22
2019-05-23T13:58:32.322Z,101310.22
2019-05-23T14:01:08.209Z,101307.00
2019-05-23T14:03:37.159Z,101310.86
2019-05-23T14:06:08.319Z,101299.16
2019-05-23T14:08:39.122Z,101299.16
2019-05-23T14:11:10.079Z,101303.08
2019-05-23T14:13:41.072Z,101298.53
2019-05-23T14:16:12.178Z,101299.69
2019-05-23T14:18:43.205Z,101289.02
2019-05-23T14:21:13.886Z,101291.49
2019-05-23T14:23:44.433Z,101295.97
2019-05-23T14:26:18.380Z,101289.61
2019-05-23T14:28:49.025Z,101294.86
2019-05-23T14:31:21.678Z,101294.91
2019-05-23T14:34:17.478Z,101292.81
2019-05-23T14:37:07.102Z,101287.86
2019-05-23T14:39:41.922Z,101282.89
2019-05-23T14:42:40.701Z,101281.18
2019-05-23T14:45:30.046Z,101286.41
2019-05-23T14:48:14.249Z,101280.84
2019-05-23T14:50:57.454Z,101283.01
2019-05-23T14:53:31.524Z,101280.38
2019-05-23T14:58:38.609Z,101268.86
2019-05-23T15:01:10.545Z,101269.23
2019-05-23T15:03:41.114Z,101265.48
2019-05-23T15:06:11.982Z,101273.65
2019-05-23T15:08:50.968Z,101265.43
2019-05-23T15:11:16.017Z,101269.32
2019-05-23T15:13:48.064Z,101262.39
2019-05-23T15:16:19.396Z,101268.85
2019-05-23T15:18:50.505Z,101262.59
2019-05-23T15:21:21.369Z,101263.73
2019-05-23T15:23:52.222Z,101258.32
2019-05-23T15:26:24.893Z,101258.32
2019-05-23T15:28:55.416Z,101249.09
2019-05-23T15:31:26.361Z,101254.03
2019-05-23T15:33:56.980Z,101253.42
2019-05-23T15:36:27.282Z,101248.73
2019-05-23T15:39:09.041Z,101245.38
2019-05-23T15:41:30.471Z,101247.34
2019-05-23T15:44:01.067Z,101244.43
2019-05-23T15:46:31.661Z,101245.38
2019-05-23T15:49:02.515Z,101247.29
2019-05-23T15:51:39.118Z,101242.09
2019-05-23T15:54:19.246Z,101247.15
2019-05-23T15:57:17.411Z,101241.69
2019-05-23T15:59:59.119Z,101243.94
2019-05-23T16:02:48.496Z,101244.01
2019-05-23T16:05:19.341Z,101238.03
2019-05-23T16:07:50.336Z,101237.14
2019-05-23T16:10:22.254Z,101235.36
2019-05-23T16:12:55.333Z,101234.32
2019-05-23T16:15:26.509Z,101239.30
2019-05-23T16:17:57.176Z,101248.33
2019-05-23T16:20:27.746Z,101237.25
2019-05-23T16:22:59.587Z,101237.25
2019-05-23T16:25:31.288Z,101236.20
2019-05-23T16:28:01.810Z,101235.42
2019-05-23T16:30:32.789Z,101235.27
2019-05-23T16:33:03.410Z,101237.50
2019-05-23T16:35:34.311Z,101233.86
2019-05-23T16:38:04.625Z,101233.75
2019-05-23T16:40:35.231Z,101230.71
2019-05-23T16:43:06.936Z,101232.01
2019-05-23T16:45:37.534Z,101225.69
2019-05-23T16:48:10.336Z,101225.39
2019-05-23T16:50:41.080Z,101229.93
2019-05-23T16:53:12.214Z,101232.24
2019-05-23T16:55:49.884Z,101236.65
2019-05-23T16:58:39.905Z,101237.10
2019-05-23T17:01:24.414Z,101234.20
2019-05-23T17:04:06.489Z,101234.20
2019-05-23T17:07:00.306Z,101234.33
2019-05-23T17:09:39.596Z,101236.91
2019-05-23T17:12:27.849Z,101236.91
2019-05-23T17:15:03.933Z,101239.45
2019-05-23T17:18:02.919Z,101232.95
2019-05-23T17:20:46.535Z,101228.97
2019-05-23T17:23:34.814Z,101233.78
2019-05-23T17:26:20.688Z,101237.08
2019-05-23T17:28:53.470Z,101236.41
2019-05-23T17:31:29.279Z,101238.30
2019-05-23T17:33:59.565Z,101228.84
2019-05-23T17:36:30.286Z,101234.22
2019-05-23T17:39:00.969Z,101234.38
2019-05-23T17:41:32.007Z,101235.03
2019-05-23T17:44:04.940Z,101232.46
2019-05-23T17:46:35.740Z,101232.46
2019-05-23T17:49:08.898Z,101242.39
2019-05-23T17:51:39.581Z,101232.27
2019-05-23T17:54:16.714Z,101239.34
2019-05-23T17:56:48.068Z,101235.88
2019-05-23T17:59:20.023Z,101237.27
2019-05-23T18:01:54.730Z,101242.11
2019-05-23T18:04:25.343Z,101237.84
2019-05-23T18:06:56.804Z,101236.20
2019-05-23T18:09:28.782Z,101241.94
2019-05-23T18:11:59.761Z,101237.66
2019-05-23T18:14:31.608Z,101233.33
2019-05-23T18:17:02.210Z,101236.41
2019-05-23T18:19:33.920Z,101232.08
2019-05-23T18:22:05.601Z,101231.70
2019-05-23T18:24:37.121Z,101233.02
2019-05-23T18:47:59.947Z,101249.06
2019-05-23T18:50:30.910Z,101256.47
2019-05-23T18:53:03.225Z,101253.89
2019-05-23T18:55:34.806Z,101261.23
2019-05-23T18:58:06.294Z,101262.12
2019-05-23T19:01:00.167Z,101260.81
2019-05-23T19:03:30.608Z,101263.37
2019-05-23T19:06:01.489Z,101263.37
2019-05-23T19:08:32.640Z,101271.59
2019-05-23T19:11:19.549Z,101271.58
2019-05-23T19:13:35.608Z,101275.00
2019-05-23T19:16:06.309Z,101277.57
2019-05-23T19:18:37.539Z,101273.65
2019-05-23T19:21:10.108Z,101277.06
2019-05-23T19:23:40.833Z,101273.55
2019-05-23T19:31:33.267Z,101278.04
2019-05-23T19:34:10.081Z,101290.08
2019-05-23T19:36:40.678Z,101290.81
2019-05-23T19:39:13.072Z,101290.70
2019-05-23T19:41:44.224Z,101293.32
2019-05-23T19:44:15.109Z,101300.20
2019-05-23T19:52:00.398Z,101293.20
2019-05-23T19:54:31.120Z,101304.40
2019-05-23T20:02:37.974Z,101314.13
2019-05-23T20:05:22.388Z,101313.62
2019-05-23T20:07:54.922Z,101311.42
2019-05-23T20:10:26.436Z,101309.20
2019-05-23T20:12:57.050Z,101313.43
2019-05-23T20:15:29.094Z,101313.80
2019-05-23T20:17:59.668Z,101313.77
2019-05-23T20:20:31.444Z,101314.14
2019-05-23T20:23:03.633Z,101312.92
2019-05-23T20:25:35.352Z,101309.05
2019-05-23T20:28:06.286Z,101306.42
2019-05-23T20:30:57.639Z,101311.13
2019-05-23T20:33:28.550Z,101314.94
2019-05-23T20:36:00.364Z,101311.05
2019-05-23T20:38:31.499Z,101310.51
2019-05-23T20:41:01.795Z,101318.14
2019-05-23T20:43:32.484Z,101309.41
2019-05-23T20:46:03.336Z,101313.24
2019-05-23T20:48:33.996Z,101313.20
2019-05-23T20:51:04.898Z,101316.16
2019-05-23T20:53:36.739Z,101319.98
2019-05-23T20:56:07.382Z,101314.25
2019-05-23T20:58:37.949Z,101318.86
2019-05-23T21:01:25.338Z,101318.86
2019-05-23T21:03:57.497Z,101316.58
2019-05-23T21:06:28.094Z,101312.49
2019-05-23T21:08:58.703Z,101314.77
2019-05-23T21:11:29.091Z,101314.77
2019-05-23T21:13:59.729Z,101311.23
2019-05-23T21:16:30.052Z,101313.72
2019-05-23T21:19:00.764Z,101310.61
2019-05-23T21:21:31.167Z,101308.33
2019-05-23T21:24:02.987Z,101311.63
2019-05-23T21:26:33.583Z,101307.22
2019-05-23T21:29:03.944Z,101317.53
2019-05-23T21:31:34.296Z,101305.34
2019-05-23T21:34:05.302Z,101302.34
2019-05-23T21:36:35.759Z,101308.84
2019-05-23T21:39:10.526Z,101301.45
2019-05-23T21:41:41.494Z,101303.15
2019-05-23T21:44:11.918Z,101308.25
2019-05-23T21:46:42.619Z,101305.15
2019-05-23T21:49:13.859Z,101302.51
2019-05-23T21:51:44.478Z,101302.02
2019-05-23T21:54:15.064Z,101304.91
2019-05-23T21:56:45.727Z,101293.63
2019-05-23T21:59:17.399Z,101291.38
2019-05-23T22:02:00.588Z,101289.08
2019-05-23T22:04:35.042Z,101295.92
2019-05-23T22:07:07.607Z,101294.23
2019-05-23T22:09:39.609Z,101298.86
2019-05-23T22:12:14.502Z,101290.50
2019-05-23T22:14:47.200Z,101296.42
2019-05-23T22:17:19.648Z,101293.28
2019-05-23T22:19:51.421Z,101289.42
2019-05-23T22:22:22.076Z,101290.17
2019-05-23T22:24:53.756Z,101273.66
2019-05-23T22:27:24.941Z,101287.87
2019-05-23T22:29:56.521Z,101286.40
2019-05-23T22:32:28.655Z,101291.88
2019-05-23T22:35:04.040Z,101290.45
2019-05-23T22:37:38.555Z,101292.89
2019-05-23T22:40:10.815Z,101290.17
2019-05-23T22:42:42.463Z,101287.89
2019-05-23T22:45:15.331Z,101285.73
2019-05-23T22:47:47.387Z,101285.67
2019-05-23T22:50:17.857Z,101288.25
2019-05-23T22:52:48.197Z,101279.53
2019-05-23T22:55:20.837Z,101278.99
2019-05-23T22:57:51.477Z,101280.13
2019-05-23T23:00:30.892Z,101283.77
2019-05-23T23:03:01.664Z,101270.16
2019-05-23T23:05:33.111Z,101270.16
2019-05-23T23:08:03.626Z,101272.63
2019-05-23T23:10:35.699Z,101272.50
2019-05-23T23:13:06.198Z,101269.44
2019-05-23T23:15:38.361Z,101270.23
2019-05-23T23:18:08.835Z,101266.30
2019-05-23T23:20:39.193Z,101264.05
2019-05-23T23:23:10.078Z,101264.41
2019-05-23T23:25:40.736Z,101274.16
2019-05-23T23:28:11.389Z,101269.33
2019-05-23T23:30:43.703Z,101263.23
2019-05-23T23:33:14.521Z,101264.83
2019-05-23T23:35:45.112Z,101253.74
2019-05-23T23:38:15.761Z,101253.74
2019-05-23T23:40:46.053Z,101254.89
2019-05-23T23:43:16.371Z,101253.87
2019-05-23T23:46:05.065Z,101250.26
2019-05-23T23:48:53.347Z,101248.01
2019-05-23T23:51:41.533Z,101253.52
2019-05-23T23:54:31.104Z,101253.75
2019-05-23T23:57:19.943Z,101245.88
2019-05-23T23:59:49.313Z,101246.24
